Pagrindinis puslapis
METAR-TAF:

METAR-TAF

Oro uostai :

Jerevanas, Armėnija

platuma: 40-08-50N, ilguma: 044-23-45E, Aukštis: 865 m

Dabartinis oras

Ataskaita buvo paskelbta 23 minutes, ne 23:00 UTC
Vėjas 3 kt iš Šiaurės Rytų
Temperatūra 12°C
Drėgmė 67%
Slėgis 1017 hPa
Matomumas 10 km arba daugiau
Išsisklaidę debesys ne aukštis 4600 ft

METAR: UDYZ 052300Z 04003KT 9999 SCT046 12/06 Q1017 R09/010070 NOSIG

Laikas: 03:23 (23:23 UTC)

Prognozė

Ataskaita buvo paskelbta 6 valandos ir 14 minutes, ne 17:09 UTC
Prognozė galioja nuo 05 metu 18 UTC su 06 metu 18 UTC
Vėjas 6 kt iš Šiaurės/Šiaurės Vakarų
Matomumas: 6000 m
Išsisklaidę debesys ne aukštis 4000 ft
Laikinai
nuo 05 metu 20 UTC su 06 metu 06 UTC
Apsiniaukę ne aukštis 2000 ft
lietus
Laikinai
nuo 06 metu 06 UTC su 06 metu 18 UTC
Vėjas 16 kt nuo kintamojo kryptimis
Su prošvaistėmis ne aukštis 2000 ft, Liūtiniai kamuoliniai debesys.
lietus

TAF: UDYZ 051709Z 0518/0618 33006KT 6000 SCT040 TEMPO 0520/0606 -RA OVC020 TEMPO 0606/0618 VRB16KT -SHRA BKN020CB

Orai ataskaitas ir orų prognozės (METAR, TAF).

turimą stotys yra geltonos ir raudonos taškus žemėlapyje.

Perkelti pele per norėdami pamatyti stoties vardą.

Tada spustelėkite, norėdami matyti oro stebėjimo ir prognozės.

Norėdami pakeisti žemėlapį: spustelėkite ant žalios mygtukų su juodo kryžiaus žemyn,; žalią mygtuką su brūkšneliu, jei norite nutolinti; arba žalių rodyklių gretimoms žemėlapius.


METAR-TAF: